Time;durP1;ratioP1;P1;durP2;ratioP2;P2;SDS_P1;SDS_P2;PMS_P1;PMS_P2;Temp;Humidity;BMP_temperature;BMP_pressure;BME280_temperature;BME280_humidity;BME280_pressure;Samples;Min_cycle;Max_cycle;Signal;HPM_P1;HPM_P2
2022/07/26 00:01:03;;;;;;;;;3.50;2.00;;;;;21.05;64.20;101223.31;5070254;28;8831;-66
2022/07/26 00:03:31;;;;;;;;;4.00;2.50;;;;;21.04;63.96;101232.63;5074179;28;8823;-65
2022/07/26 00:05:58;;;;;;;;;1.00;1.00;;;;;21.03;63.89;101222.78;5075359;28;8911;-66
2022/07/26 00:08:25;;;;;;;;;3.00;3.00;;;;;21.02;63.91;101225.75;5068925;28;8819;-67
2022/07/26 00:10:51;;;;;;;;;1.00;1.00;;;;;21.01;63.71;101229.56;5064843;28;8823;-66
2022/07/26 00:13:19;;;;;;;;;2.00;1.50;;;;;21.04;63.55;101237.28;5067791;28;8830;-66
2022/07/26 00:15:47;;;;;;;;;1.75;1.75;;;;;21.04;63.35;101237.28;5073961;28;8850;-67
2022/07/26 00:18:14;;;;;;;;;3.25;1.25;;;;;21.03;63.28;101246.59;5074861;28;9008;-66
2022/07/26 00:20:41;;;;;;;;;1.00;0.50;;;;;20.99;62.99;101249.81;5069653;28;8873;-68
2022/07/26 00:23:08;;;;;;;;;3.50;3.00;;;;;20.96;63.08;101246.75;5071766;28;8831;-65
2022/07/26 00:25:35;;;;;;;;;2.75;2.75;;;;;20.93;62.99;101252.72;5068817;28;8833;-66
2022/07/26 00:28:02;;;;;;;;;3.00;2.00;;;;;20.95;62.89;101253.31;5069711;28;8926;-67
2022/07/26 00:30:28;;;;;;;;;2.00;2.00;;;;;20.92;62.85;101259.28;5066991;28;8928;-66
2022/07/26 00:32:55;;;;;;;;;1.75;1.75;;;;;20.95;62.77;101254.16;5069200;28;8941;-67
2022/07/26 00:35:22;;;;;;;;;2.00;1.00;;;;;20.96;62.51;101257.69;5054423;28;8925;-67
2022/07/26 00:37:48;;;;;;;;;3.25;2.00;;;;;20.92;62.30;101259.28;5053685;28;9699;-66
2022/07/26 00:40:16;;;;;;;;;1.00;1.00;;;;;20.85;61.96;101266.84;5064728;28;8910;-65
2022/07/26 00:42:42;;;;;;;;;4.00;2.00;;;;;20.79;61.82;101262.41;5074068;28;8869;-66
2022/07/26 00:45:11;;;;;;;;;2.00;1.75;;;;;20.76;61.66;101266.47;5068798;28;8814;-65
2022/07/26 00:47:38;;;;;;;;;2.00;2.00;;;;;20.77;61.39;101267.28;5053320;28;8961;-65
2022/07/26 00:50:06;;;;;;;;;1.50;1.50;;;;;20.74;61.28;101265.88;5053183;28;8943;-65
2022/07/26 00:52:33;;;;;;;;;1.75;1.75;;;;;20.73;61.33;101267.78;5053496;28;8853;-65
2022/07/26 00:55:00;;;;;;;;;1.00;1.00;;;;;20.71;61.05;101269.94;5054529;28;8948;-65
2022/07/26 00:57:27;;;;;;;;;1.50;1.50;;;;;20.71;61.34;101269.13;5063387;28;8814;-65
2022/07/26 00:59:53;;;;;;;;;2.00;2.00;;;;;20.71;61.08;101269.13;5072852;28;8831;-65
2022/07/26 01:02:21;;;;;;;;;2.50;2.00;;;;;20.67;61.23;101260.59;5072397;28;8847;-66
2022/07/26 01:04:47;;;;;;;;;0.75;0.75;;;;;20.68;61.20;101270.44;5063513;28;8846;-65
2022/07/26 01:07:14;;;;;;;;;1.00;1.00;;;;;20.64;61.24;101265.72;5053815;28;8842;-65
2022/07/26 01:09:41;;;;;;;;;3.50;1.75;;;;;20.62;61.22;101268.72;5072209;28;8889;-67
2022/07/26 01:12:08;;;;;;;;;1.25;1.25;;;;;20.63;61.34;101270.38;5072353;28;8916;-67
2022/07/26 01:14:34;;;;;;;;;1.25;1.25;;;;;20.63;61.35;101270.38;5067489;28;8826;-67
2022/07/26 01:17:01;;;;;;;;;2.00;2.00;;;;;20.63;61.13;101270.38;5067742;28;8817;-67
2022/07/26 01:19:27;;;;;;;;;2.00;2.00;;;;;20.61;61.26;101272.53;5054995;28;8843;-65
2022/07/26 01:21:54;;;;;;;;;2.75;1.75;;;;;20.61;61.19;101275.25;5062427;28;8886;-65
2022/07/26 01:24:20;;;;;;;;;1.75;1.75;;;;;20.61;61.15;101277.16;5071727;28;8912;-67
2022/07/26 01:26:47;;;;;;;;;1.00;1.00;;;;;20.60;61.09;101270.88;5072717;28;8823;-66
2022/07/26 01:29:13;;;;;;;;;0.75;0.75;;;;;20.62;61.17;101271.47;5070849;28;8843;-66
2022/07/26 01:31:40;;;;;;;;;1.25;1.25;;;;;20.65;61.07;101273.69;5071894;28;8859;-65
2022/07/26 01:34:06;;;;;;;;;1.50;1.50;;;;;20.69;60.99;101268.53;5071552;28;8827;-65
2022/07/26 01:36:34;;;;;;;;;3.00;2.00;;;;;20.69;60.91;101279.47;5067406;28;8942;-65
2022/07/26 01:39:01;;;;;;;;;1.50;1.50;;;;;20.67;60.87;101271.53;5060984;28;8846;-65
2022/07/26 01:41:27;;;;;;;;;0.50;0.50;;;;;20.64;60.92;101285.69;5050815;28;8919;-66
2022/07/26 01:44:04;;;;;;;;;1.75;1.00;;;;;20.59;60.90;101282.06;5060121;28;8854;-65
2022/07/26 01:46:33;;;;;;;;;1.00;1.00;;;;;20.52;61.15;101295.91;5072150;28;8880;-66
2022/07/26 01:49:00;;;;;;;;;1.00;1.00;;;;;20.43;61.33;101295.47;5062925;28;8799;-66
2022/07/26 01:51:27;;;;;;;;;1.25;1.25;;;;;20.41;61.55;101288.59;5072315;28;8827;-65
2022/07/26 01:53:53;;;;;;;;;1.00;1.00;;;;;20.42;61.67;101296.56;5072237;28;8957;-66
2022/07/26 01:56:20;;;;;;;;;2.75;2.00;;;;;20.38;61.73;101289.94;5068031;28;8868;-65
2022/07/26 01:58:46;;;;;;;;;1.75;1.00;;;;;20.38;61.92;101291.84;5071539;28;8888;-66
2022/07/26 02:01:13;;;;;;;;;1.00;1.00;;;;;20.39;61.99;101291.56;5072321;28;8850;-65
2022/07/26 02:03:39;;;;;;;;;0.00;0.00;;;;;20.40;61.91;101297.88;5064882;28;8877;-65
2022/07/26 02:06:06;;;;;;;;;0.00;0.00;;;;;20.39;61.88;101291.56;5069330;28;8819;-66
2022/07/26 02:08:32;;;;;;;;;2.00;1.00;;;;;20.40;61.86;101292.41;5071916;28;8897;-66
2022/07/26 02:11:00;;;;;;;;;1.25;1.00;;;;;20.39;61.75;101296.22;5072680;28;8858;-65
2022/07/26 02:13:40;;;;;;;;;1.00;0.75;;;;;20.39;61.83;101302.50;5072351;28;8828;-66
2022/07/26 02:16:10;;;;;;;;;1.00;1.00;;;;;20.37;62.20;101299.19;5068164;28;8815;-66
2022/07/26 02:18:39;;;;;;;;;1.00;1.00;;;;;20.36;62.17;101304.91;5067255;28;8835;-65
2022/07/26 02:21:06;;;;;;;;;2.75;1.75;;;;;20.34;62.08;101304.34;5071580;28;8835;-65
2022/07/26 02:23:34;;;;;;;;;3.25;2.00;;;;;20.31;62.23;101304.84;5072245;28;8966;-66
2022/07/26 02:26:06;;;;;;;;;1.00;0.75;;;;;20.30;62.46;101300.44;5071888;28;8904;-65
2022/07/26 02:28:32;;;;;;;;;2.00;2.00;;;;;20.30;62.30;101303.19;5072002;28;9510;-65
2022/07/26 02:30:58;;;;;;;;;1.00;1.00;;;;;20.29;62.68;101304.25;5066274;28;8831;-65
2022/07/26 02:33:25;;;;;;;;;1.50;1.00;;;;;20.29;62.55;101304.25;5071520;28;8815;-66
2022/07/26 02:35:51;;;;;;;;;2.00;1.00;;;;;20.29;62.71;101306.97;5063235;28;8932;-66
2022/07/26 02:38:18;;;;;;;;;1.00;1.00;;;;;20.25;62.77;101312.09;5051519;28;8830;-65
2022/07/26 02:40:45;;;;;;;;;1.00;1.00;;;;;20.18;63.18;101312.28;5052251;28;8864;-64
2022/07/26 02:43:11;;;;;;;;;0.25;0.25;;;;;20.17;63.23;101312.50;5052128;28;8895;-65
2022/07/26 02:45:38;;;;;;;;;1.00;1.00;;;;;20.17;63.29;101310.59;5064653;28;9518;-65
2022/07/26 02:48:05;;;;;;;;;1.00;1.00;;;;;20.15;63.38;101304.56;5067629;28;8857;-65
2022/07/26 02:50:32;;;;;;;;;0.50;0.50;;;;;20.15;63.46;101303.75;5071403;28;8957;-65
2022/07/26 02:52:59;;;;;;;;;2.00;1.00;;;;;20.14;63.39;101310.28;5068438;28;8857;-65
2022/07/26 02:55:26;;;;;;;;;0.75;0.75;;;;;20.12;63.67;101306.97;5071433;28;8859;-66
2022/07/26 02:57:53;;;;;;;;;2.00;1.00;;;;;20.11;63.82;101303.41;5064111;28;8834;-66
2022/07/26 03:00:23;;;;;;;;;6.75;1.00;;;;;20.09;63.63;101311.00;5065144;28;8904;-66
2022/07/26 03:02:50;;;;;;;;;0.75;0.75;;;;;20.05;63.82;101315.31;5069068;28;8823;-66
2022/07/26 03:05:18;;;;;;;;;0.75;0.00;;;;;20.05;64.01;101328.97;5052175;28;8850;-66
2022/07/26 03:07:45;;;;;;;;;2.00;2.00;;;;;20.02;64.02;101318.56;5051263;28;8840;-66
2022/07/26 03:10:12;;;;;;;;;1.25;1.00;;;;;20.03;63.81;101330.31;5061616;28;8911;-66
2022/07/26 03:12:39;;;;;;;;;1.00;1.00;;;;;20.04;63.87;101330.06;5068645;28;8840;-65
2022/07/26 03:15:05;;;;;;;;;2.25;0.50;;;;;20.02;63.65;101329.47;5075103;28;8851;-65
2022/07/26 03:17:32;;;;;;;;;1.00;1.00;;;;;20.04;63.87;101331.97;5074909;28;9677;-66
2022/07/26 03:19:58;;;;;;;;;0.50;0.50;;;;;19.98;63.94;101329.13;5074285;28;9546;-65
2022/07/26 03:22:25;;;;;;;;;1.00;1.00;;;;;19.96;64.08;101331.28;5075333;28;8831;-66
2022/07/26 03:24:51;;;;;;;;;1.00;1.00;;;;;19.95;64.04;101329.63;5074285;28;8819;-65
2022/07/26 03:27:18;;;;;;;;;1.25;1.00;;;;;19.94;64.21;101336.16;5068831;28;8825;-66
2022/07/26 03:29:44;;;;;;;;;0.00;0.00;;;;;19.94;64.35;101329.88;5074524;28;8835;-66
2022/07/26 03:32:11;;;;;;;;;1.00;1.00;;;;;19.92;64.34;101330.09;5074767;28;8827;-66
2022/07/26 03:34:37;;;;;;;;;0.50;0.50;;;;;19.93;64.33;101337.25;5070701;28;9048;-66
2022/07/26 03:37:03;;;;;;;;;0.75;0.75;;;;;19.92;64.51;101340.22;5054640;28;9694;-66
2022/07/26 03:39:30;;;;;;;;;0.00;0.00;;;;;19.91;64.60;101342.13;5054865;28;8873;-65
2022/07/26 03:41:56;;;;;;;;;2.25;2.25;;;;;19.92;64.86;101345.66;5072672;28;8819;-65
2022/07/26 03:44:23;;;;;;;;;1.00;1.00;;;;;19.90;65.77;101358.75;5072655;28;8841;-66
2022/07/26 03:46:49;;;;;;;;;2.50;2.50;;;;;19.85;66.87;101350.44;5072204;28;8823;-66
2022/07/26 03:49:16;;;;;;;;;2.00;1.00;;;;;19.74;67.79;101347.53;5069400;28;8933;-65
2022/07/26 03:51:43;;;;;;;;;1.00;1.00;;;;;19.68;68.40;101353.13;5069160;28;8843;-65
2022/07/26 03:54:09;;;;;;;;;2.00;2.00;;;;;19.61;68.92;101361.47;5073703;28;8811;-65
2022/07/26 03:56:37;;;;;;;;;1.50;1.50;;;;;19.59;69.24;101371.75;5072306;28;8838;-65
2022/07/26 03:59:06;;;;;;;;;1.00;1.00;;;;;19.57;69.61;101365.72;5070018;28;8954;-65
2022/07/26 04:01:34;;;;;;;;;1.00;1.00;;;;;19.55;69.61;101362.38;5065234;28;8970;-65
2022/07/26 04:04:01;;;;;;;;;1.50;1.50;;;;;19.55;69.76;101369.75;5071417;28;8847;-64
2022/07/26 04:06:28;;;;;;;;;0.00;0.00;;;;;19.55;69.90;101372.50;5072400;28;8838;-65
2022/07/26 04:08:55;;;;;;;;;2.00;2.00;;;;;19.54;70.13;101373.56;5062551;28;8852;-64
2022/07/26 04:11:22;;;;;;;;;2.00;2.00;;;;;19.52;70.13;101377.34;5071399;28;8838;-65
2022/07/26 04:13:53;;;;;;;;;0.00;0.00;;;;;19.50;70.33;101368.56;5068648;28;8948;-64
2022/07/26 04:16:19;;;;;;;;;2.50;2.00;;;;;19.45;70.16;101375.84;5066172;28;8881;-66
2022/07/26 04:18:46;;;;;;;;;1.00;1.00;;;;;19.43;70.80;101375.25;5071977;28;8881;-65
2022/07/26 04:21:12;;;;;;;;;1.00;1.00;;;;;19.43;70.83;101380.69;5072163;28;8835;-65
2022/07/26 04:23:38;;;;;;;;;2.00;2.00;;;;;19.39;70.68;101376.78;5059464;28;8814;-65
2022/07/26 04:26:05;;;;;;;;;1.50;1.50;;;;;19.37;70.47;101381.66;5068410;28;8916;-64
2022/07/26 04:28:32;;;;;;;;;1.25;1.25;;;;;19.38;70.49;101386.88;5065229;28;8969;-65
2022/07/26 04:30:59;;;;;;;;;2.50;1.50;;;;;19.34;70.66;101393.88;5071012;28;8897;-65
2022/07/26 04:33:26;;;;;;;;;1.25;1.00;;;;;19.27;70.49;101398.63;5071449;28;8831;-65
2022/07/26 04:35:53;;;;;;;;;0.75;0.75;;;;;19.15;69.91;101400.53;5072610;28;8945;-65
2022/07/26 04:38:19;;;;;;;;;0.00;0.00;;;;;19.04;69.78;101399.50;5070456;28;8851;-65
2022/07/26 04:40:46;;;;;;;;;0.00;0.00;;;;;18.91;69.32;101408.72;5082438;23;8874;-64
2022/07/26 04:43:13;;;;;;;;;0.00;0.00;;;;;18.76;69.84;101413.81;5048829;28;8848;-64
2022/07/26 04:45:45;;;;;;;;;1.75;1.00;;;;;18.73;70.29;101404.19;5051609;28;8873;-64
2022/07/26 04:48:12;;;;;;;;;0.00;0.00;;;;;18.80;70.28;101412.28;5051059;28;8842;-64
2022/07/26 04:50:41;;;;;;;;;1.00;1.00;;;;;18.85;70.13;101414.28;5056344;28;8916;-64
2022/07/26 04:53:09;;;;;;;;;3.25;0.00;;;;;18.84;70.06;101421.66;5070532;28;8950;-64
2022/07/26 04:55:37;;;;;;;;;0.50;0.00;;;;;18.87;70.23;101423.88;5085168;28;8946;-64
2022/07/26 04:58:04;;;;;;;;;0.75;0.75;;;;;18.93;70.61;101420.22;5070445;28;8819;-63
2022/07/26 05:00:30;;;;;;;;;0.00;0.00;;;;;18.99;70.67;101432.09;5051537;28;8989;-63
2022/07/26 05:02:59;;;;;;;;;1.00;0.00;;;;;18.98;70.41;101428.53;5061456;28;8819;-63
2022/07/26 05:05:29;;;;;;;;;0.25;0.25;;;;;18.99;70.27;101430.19;5070065;28;8856;-64
2022/07/26 05:07:58;;;;;;;;;1.75;1.00;;;;;18.95;69.88;101433.63;5066987;28;8820;-64
2022/07/26 05:10:35;;;;;;;;;1.00;1.00;;;;;18.91;70.04;101433.25;5069405;28;8970;-64
2022/07/26 05:13:04;;;;;;;;;1.50;1.50;;;;;18.88;70.16;101443.81;5069375;28;9494;-64
2022/07/26 05:15:31;;;;;;;;;0.00;0.00;;;;;18.89;70.45;101446.31;5063126;28;8876;-64
2022/07/26 05:18:10;;;;;;;;;0.00;0.00;;;;;18.77;69.95;101451.75;5070963;28;8836;-63
2022/07/26 05:20:39;;;;;;;;;1.00;0.25;;;;;18.77;70.40;101437.28;5069443;28;8858;-64
2022/07/26 05:23:06;;;;;;;;;0.00;0.00;;;;;18.78;70.50;101456.13;5070312;28;8827;-64
2022/07/26 05:25:32;;;;;;;;;0.00;0.00;;;;;18.80;70.53;101452.34;5070402;28;8823;-64
2022/07/26 05:27:59;;;;;;;;;1.25;0.75;;;;;18.83;70.56;101457.31;5066931;28;8811;-63
2022/07/26 05:30:25;;;;;;;;;2.00;1.00;;;;;18.82;70.80;101455.69;5070610;28;8835;-64
2022/07/26 05:32:52;;;;;;;;;0.25;0.00;;;;;18.83;70.50;101457.31;5069882;28;9451;-64
2022/07/26 05:35:18;;;;;;;;;1.00;1.00;;;;;18.80;70.21;101469.56;5070794;28;8949;-64
2022/07/26 05:37:45;;;;;;;;;0.50;0.00;;;;;18.77;70.44;101473.56;5070473;28;9781;-65
2022/07/26 05:40:12;;;;;;;;;0.25;0.25;;;;;18.76;70.45;101468.38;5066888;28;8818;-64
2022/07/26 05:42:38;;;;;;;;;0.25;0.25;;;;;18.74;70.00;101465.03;5056508;28;9525;-64
2022/07/26 05:45:06;;;;;;;;;0.00;0.00;;;;;18.70;69.71;101475.56;5069189;28;8925;-64
2022/07/26 05:47:32;;;;;;;;;0.00;0.00;;;;;18.63;69.47;101472.06;5069816;28;8831;-64
2022/07/26 05:49:59;;;;;;;;;0.00;0.00;;;;;18.63;69.61;101474.78;5070287;28;8835;-65
2022/07/26 05:52:25;;;;;;;;;0.00;0.00;;;;;18.67;69.51;101483.34;5066455;28;8908;-64
2022/07/26 05:54:52;;;;;;;;;0.00;0.00;;;;;18.70;69.42;101482.91;5070063;28;8894;-64
2022/07/26 05:57:18;;;;;;;;;0.00;0.00;;;;;18.73;69.24;101487.91;5068483;28;8864;-65
2022/07/26 05:59:45;;;;;;;;;0.00;0.00;;;;;18.73;69.41;101494.19;5069764;28;11282;-65
2022/07/26 06:02:11;;;;;;;;;0.00;0.00;;;;;18.74;69.48;101495.03;5069583;28;8851;-64
2022/07/26 06:04:38;;;;;;;;;1.00;1.00;;;;;18.64;68.87;101502.91;5070158;28;9557;-65
2022/07/26 06:07:04;;;;;;;;;0.00;0.00;;;;;18.48;68.70;101515.28;5069330;28;8955;-65
2022/07/26 06:09:31;;;;;;;;;0.00;0.00;;;;;18.37;69.31;101513.34;5069656;28;8819;-65
2022/07/26 06:11:57;;;;;;;;;0.00;0.00;;;;;18.39;69.41;101519.38;5070041;28;8831;-65
2022/07/26 06:14:23;;;;;;;;;0.67;0.67;;;;;18.45;69.29;101523.94;5068772;28;8957;-65
2022/07/26 06:16:50;;;;;;;;;1.00;1.00;;;;;18.48;69.08;101520.75;5059661;28;8845;-65
2022/07/26 06:19:16;;;;;;;;;0.00;0.00;;;;;18.51;69.55;101523.00;5065394;28;9568;-65
2022/07/26 06:21:44;;;;;;;;;0.00;0.00;;;;;18.56;69.77;101527.78;5067766;28;8904;-65
2022/07/26 06:24:12;;;;;;;;;1.50;1.00;;;;;18.57;69.35;101538.44;5068604;28;9553;-65
2022/07/26 06:26:38;;;;;;;;;0.25;0.00;;;;;18.55;69.39;101537.81;5068009;28;8850;-65
2022/07/26 06:29:05;;;;;;;;;0.00;0.00;;;;;18.55;69.52;101540.56;5069991;28;8835;-64
2022/07/26 06:31:31;;;;;;;;;0.25;0.25;;;;;18.56;69.58;101539.53;5069591;28;9602;-65
2022/07/26 06:33:58;;;;;;;;;0.00;0.00;;;;;18.56;69.24;101542.25;5051079;28;8870;-65
2022/07/26 06:36:24;;;;;;;;;0.00;0.00;;;;;18.57;68.90;101543.06;5067456;28;8840;-65
2022/07/26 06:38:56;;;;;;;;;0.00;0.00;;;;;18.58;68.63;101548.28;5069852;28;8823;-65
2022/07/26 06:41:22;;;;;;;;;0.00;0.00;;;;;18.63;68.81;101559.31;5067511;28;8826;-65
2022/07/26 06:43:49;;;;;;;;;0.00;0.00;;;;;18.64;68.27;101565.63;5069721;28;8824;-65
2022/07/26 06:46:15;;;;;;;;;0.25;0.00;;;;;18.56;67.92;101564.06;5073688;28;8908;-65
2022/07/26 06:48:42;;;;;;;;;0.00;0.00;;;;;18.55;67.88;101570.56;5065694;28;8841;-65
2022/07/26 06:51:13;;;;;;;;;0.75;0.00;;;;;18.57;67.97;101571.16;5055840;28;8857;-65
2022/07/26 06:53:39;;;;;;;;;0.00;0.00;;;;;18.59;68.04;101576.38;5070770;28;8911;-65
2022/07/26 06:56:06;;;;;;;;;0.00;0.00;;;;;18.62;67.76;101582.22;5073373;28;8869;-65
2022/07/26 06:58:33;;;;;;;;;0.00;0.00;;;;;18.54;67.08;101588.81;5068484;28;8825;-65
2022/07/26 07:00:59;;;;;;;;;0.00;0.00;;;;;18.47;66.58;101581.78;5062144;28;8886;-65
2022/07/26 07:03:26;;;;;;;;;0.00;0.00;;;;;18.51;66.42;101581.09;5072058;28;8823;-65
2022/07/26 07:05:52;;;;;;;;;0.00;0.00;;;;;18.52;66.31;101585.50;5088727;28;8823;-65
2022/07/26 07:08:20;;;;;;;;;0.00;0.00;;;;;18.58;66.61;101596.53;5072089;28;8827;-65
2022/07/26 07:10:48;;;;;;;;;0.00;0.00;;;;;18.56;66.33;101593.22;5072056;28;8835;-65
2022/07/26 07:13:16;;;;;;;;;0.00;0.00;;;;;18.61;66.98;101602.38;5071012;28;8811;-66
2022/07/26 07:15:43;;;;;;;;;0.00;0.00;;;;;18.67;66.45;101595.16;5073126;28;8949;-65
2022/07/26 07:18:10;;;;;;;;;1.00;0.00;;;;;18.67;65.86;101592.44;5063105;28;9630;-65
2022/07/26 07:20:38;;;;;;;;;0.00;0.00;;;;;18.61;65.50;101596.91;5056997;28;8869;-65
2022/07/26 07:23:06;;;;;;;;;0.00;0.00;;;;;18.51;65.55;101593.88;5064737;28;8968;-65
2022/07/26 07:25:33;;;;;;;;;0.75;0.00;;;;;18.45;65.17;101605.72;5065826;28;8904;-65
2022/07/26 07:27:59;;;;;;;;;1.25;0.00;;;;;18.41;65.95;101609.97;5063074;28;8976;-65
2022/07/26 07:30:26;;;;;;;;;0.00;0.00;;;;;18.40;66.16;101606.41;5066714;28;8957;-65
2022/07/26 07:32:54;;;;;;;;;0.00;0.00;;;;;18.38;65.61;101610.41;5070121;28;8824;-65
2022/07/26 07:35:22;;;;;;;;;0.00;0.00;;;;;18.31;65.89;101610.50;5071833;28;8869;-65
2022/07/26 07:37:48;;;;;;;;;0.00;0.00;;;;;18.35;66.13;101616.31;5071675;28;8842;-65
2022/07/26 07:40:19;;;;;;;;;0.00;0.00;;;;;18.51;66.60;101626.59;5071086;28;8855;-65
2022/07/26 07:42:45;;;;;;;;;0.50;0.50;;;;;18.49;65.74;101620.56;5067641;28;8859;-65
2022/07/26 07:45:12;;;;;;;;;0.00;0.00;;;;;18.49;65.47;101617.84;5064138;28;9627;-65
2022/07/26 07:47:38;;;;;;;;;0.00;0.00;;;;;18.57;65.46;101624.88;5071592;28;8945;-65
2022/07/26 07:50:06;;;;;;;;;0.00;0.00;;;;;18.47;65.68;101617.22;5067529;28;8843;-65
2022/07/26 07:52:32;;;;;;;;;0.00;0.00;;;;;18.54;65.89;101624.25;5070555;28;8847;-65
2022/07/26 07:54:58;;;;;;;;;0.00;0.00;;;;;18.67;66.03;101625.16;5071509;28;8835;-65
2022/07/26 07:57:45;;;;;;;;;0.00;0.00;;;;;18.67;65.42;101628.72;5071007;28;9076;-65
2022/07/26 08:00:14;;;;;;;;;0.00;0.00;;;;;18.63;65.39;101630.22;5071390;28;8851;-65
2022/07/26 08:02:41;;;;;;;;;0.00;0.00;;;;;18.65;65.20;101630.03;5066504;28;8835;-65
2022/07/26 08:05:08;;;;;;;;;1.00;0.00;;;;;18.62;65.09;101641.38;5069539;28;8953;-65
2022/07/26 08:07:39;;;;;;;;;0.00;0.00;;;;;18.59;65.11;101641.81;5063334;28;9520;-65
2022/07/26 08:10:07;;;;;;;;;0.50;0.00;;;;;18.67;65.12;101646.97;5069079;28;8823;-65
2022/07/26 08:12:34;;;;;;;;;0.00;0.00;;;;;18.74;64.91;101634.13;5066957;28;8839;-65
2022/07/26 08:15:04;;;;;;;;;0.00;0.00;;;;;18.84;64.67;101645.34;5080852;28;8865;-66
2022/07/26 08:17:34;;;;;;;;;0.00;0.00;;;;;18.87;64.71;101654.94;5046713;28;8968;-66
2022/07/26 08:20:06;;;;;;;;;0.00;0.00;;;;;18.73;63.91;101654.28;5066074;28;8904;-65
2022/07/26 08:22:36;;;;;;;;;0.00;0.00;;;;;18.64;63.71;101656.47;5071479;28;8847;-65
2022/07/26 08:25:03;;;;;;;;;0.00;0.00;;;;;18.54;63.08;101654.25;5076022;28;8853;-65
2022/07/26 08:27:29;;;;;;;;;0.00;0.00;;;;;18.47;62.11;101660.84;5070082;28;8884;-65
2022/07/26 08:29:55;;;;;;;;;0.00;0.00;;;;;18.50;62.22;101655.75;5070592;28;8858;-65
2022/07/26 08:32:23;;;;;;;;;0.00;0.00;;;;;18.54;61.85;101661.59;5070743;28;9930;-65
2022/07/26 08:34:49;;;;;;;;;0.00;0.00;;;;;18.58;61.72;101656.53;5071743;28;8894;-66
2022/07/26 08:37:22;;;;;;;;;0.00;0.00;;;;;18.56;62.38;101664.13;5070418;28;8847;-66
2022/07/26 08:39:49;;;;;;;;;0.25;0.00;;;;;18.62;62.27;101655.00;5061423;28;8835;-65
2022/07/26 08:42:17;;;;;;;;;0.00;0.00;;;;;18.71;62.50;101670.84;5069599;28;8851;-66
2022/07/26 08:44:49;;;;;;;;;0.00;0.00;;;;;18.77;62.08;101666.41;5069840;28;8819;-66
2022/07/26 08:47:18;;;;;;;;;1.00;0.00;;;;;18.79;61.29;101683.34;5069444;28;8842;-65
2022/07/26 08:50:05;;;;;;;;;0.00;0.00;;;;;18.92;61.64;101676.91;5069839;28;8964;-65
2022/07/26 08:52:32;;;;;;;;;0.00;0.00;;;;;19.10;61.81;101676.88;5067665;28;8888;-65
2022/07/26 08:54:59;;;;;;;;;0.00;0.00;;;;;19.16;61.89;101675.13;5069969;28;8938;-64
2022/07/26 08:57:25;;;;;;;;;0.00;0.00;;;;;19.23;61.45;101687.63;5081826;28;8857;-64
2022/07/26 09:00:17;;;;;;;;;0.00;0.00;;;;;19.29;61.54;101682.31;5069013;28;8812;-63
2022/07/26 09:02:45;;;;;;;;;1.00;0.00;;;;;19.27;60.51;101683.34;5065227;28;8847;-64
2022/07/26 09:05:12;;;;;;;;;0.00;0.00;;;;;19.25;59.53;101690.97;5064525;28;8977;-64
2022/07/26 09:07:40;;;;;;;;;0.00;0.00;;;;;19.22;57.94;101688.69;5068086;28;8961;-64
2022/07/26 09:10:09;;;;;;;;;0.00;0.00;;;;;19.29;57.89;101685.88;5065392;28;8814;-64
2022/07/26 09:12:40;;;;;;;;;0.00;0.00;;;;;19.43;57.63;101683.78;5063906;28;8839;-65
2022/07/26 09:15:19;;;;;;;;;0.00;0.00;;;;;19.52;57.13;101694.13;5065815;28;8831;-64
2022/07/26 09:17:48;;;;;;;;;0.00;0.00;;;;;19.45;57.92;101703.50;5084709;28;8819;-65
2022/07/26 09:20:26;;;;;;;;;0.50;0.00;;;;;19.31;58.92;101707.47;5068487;28;8970;-65
2022/07/26 09:23:06;;;;;;;;;0.00;0.00;;;;;19.25;60.07;101721.00;5068504;28;9913;-64
2022/07/26 09:25:38;;;;;;;;;0.00;0.00;;;;;19.20;60.60;101715.41;5065997;28;8847;-64
2022/07/26 09:28:23;;;;;;;;;0.00;0.00;;;;;19.06;60.45;101729.44;5068635;28;9577;-63
2022/07/26 09:31:11;;;;;;;;;0.00;0.00;;;;;18.97;59.85;101734.38;5066130;28;8815;-64
2022/07/26 09:33:50;;;;;;;;;0.00;0.00;;;;;18.88;59.83;101732.97;5064895;28;8970;-64
2022/07/26 09:36:17;;;;;;;;;1.75;0.00;;;;;18.89;60.46;101738.22;5061274;28;8831;-64
2022/07/26 09:38:50;;;;;;;;;0.00;0.00;;;;;18.90;60.29;101748.06;5069660;28;8865;-63
2022/07/26 09:41:22;;;;;;;;;0.00;0.00;;;;;18.89;60.26;101748.31;5066836;28;8908;-64
2022/07/26 09:43:50;;;;;;;;;0.25;0.00;;;;;18.92;60.37;101745.09;5069559;28;8812;-65
2022/07/26 09:46:21;;;;;;;;;0.00;0.00;;;;;18.93;60.30;101752.25;5069223;28;8811;-63
2022/07/26 09:48:48;;;;;;;;;0.00;0.00;;;;;18.90;59.86;101753.53;5068533;28;8815;-63
2022/07/26 09:51:46;;;;;;;;;1.00;0.00;;;;;18.85;59.43;101768.94;5068143;28;8858;-63
2022/07/26 09:54:34;;;;;;;;;0.75;0.50;;;;;18.84;59.30;101776.28;5067246;28;8799;-64
2022/07/26 09:57:01;;;;;;;;;0.00;0.00;;;;;18.80;59.41;101771.47;5069184;28;8839;-65
2022/07/26 09:59:28;;;;;;;;;0.25;0.00;;;;;18.85;59.75;101771.66;5064221;28;8811;-64
2022/07/26 10:01:57;;;;;;;;;0.00;0.00;;;;;18.81;59.16;101770.44;5067032;28;9104;-64
2022/07/26 10:04:25;;;;;;;;;0.00;0.00;;;;;18.81;59.63;101770.44;5066691;28;8835;-64
2022/07/26 10:06:52;;;;;;;;;0.00;0.00;;;;;18.89;58.97;101775.59;5067058;28;8815;-63
2022/07/26 10:09:21;;;;;;;;;0.00;0.00;;;;;18.98;58.82;101779.69;5069108;28;8838;-63
2022/07/26 10:11:54;;;;;;;;;0.00;0.00;;;;;19.02;57.84;101778.16;5069272;28;8904;-63
2022/07/26 10:14:32;;;;;;;;;0.00;0.00;;;;;19.00;58.29;101785.75;5068272;28;9530;-64
2022/07/26 10:17:00;;;;;;;;;0.00;0.00;;;;;18.92;58.37;101794.22;5067828;28;8815;-64
2022/07/26 10:19:38;;;;;;;;;0.00;0.00;;;;;18.85;58.63;101805.22;5065133;28;8839;-66
2022/07/26 10:22:32;;;;;;;;;0.00;0.00;;;;;18.79;58.21;101797.94;5072719;28;8842;-66
2022/07/26 10:25:17;;;;;;;;;0.00;0.00;;;;;18.73;58.25;101801.56;5071674;28;8827;-64
2022/07/26 10:27:45;;;;;;;;;0.00;0.00;;;;;18.77;58.42;101800.06;5070742;28;8829;-65
2022/07/26 10:30:21;;;;;;;;;0.00;0.00;;;;;18.77;57.80;101800.88;5070834;28;8854;-64
2022/07/26 10:32:51;;;;;;;;;0.00;0.00;;;;;18.80;57.80;101796.03;5072206;28;9595;-64
2022/07/26 10:35:37;;;;;;;;;1.75;0.00;;;;;18.80;57.42;101787.84;5070599;28;8893;-65
2022/07/26 10:38:07;;;;;;;;;0.00;0.00;;;;;18.81;57.40;101793.09;5072327;28;8857;-63
2022/07/26 10:40:38;;;;;;;;;1.75;0.00;;;;;18.89;56.64;101797.41;5073062;28;8862;-63
2022/07/26 10:43:09;;;;;;;;;0.75;0.75;;;;;18.97;56.82;101797.13;5072664;28;9562;-64
2022/07/26 10:46:17;;;;;;;;;0.50;0.00;;;;;19.08;56.80;101796.38;5065272;28;8843;-64
2022/07/26 10:48:57;;;;;;;;;0.00;0.00;;;;;19.13;56.17;101799.25;5068482;28;8958;-62
2022/07/26 10:51:26;;;;;;;;;0.00;0.00;;;;;19.12;56.78;101794.84;5070486;28;8970;-64
2022/07/26 10:54:05;;;;;;;;;0.00;0.00;;;;;19.03;56.83;101807.13;5072263;28;8846;-64
2022/07/26 10:56:31;;;;;;;;;0.00;0.00;;;;;18.98;56.93;101810.53;5071333;28;8820;-65
2022/07/26 10:59:00;;;;;;;;;0.00;0.00;;;;;18.98;56.72;101798.78;5072207;28;8884;-64
2022/07/26 11:01:51;;;;;;;;;0.00;0.00;;;;;18.91;56.19;101807.03;5071312;28;8876;-65
2022/07/26 11:04:19;;;;;;;;;0.25;0.25;;;;;18.89;56.44;101805.59;5068042;28;8831;-64
2022/07/26 11:06:45;;;;;;;;;0.50;0.00;;;;;18.93;56.51;101812.28;5069687;28;8815;-64
2022/07/26 11:09:12;;;;;;;;;0.25;0.25;;;;;18.91;56.99;101808.94;5070566;28;8861;-64
2022/07/26 11:11:39;;;;;;;;;2.00;1.00;;;;;19.02;57.04;101810.91;5069602;28;8831;-64
2022/07/26 11:14:14;;;;;;;;;0.00;0.00;;;;;19.09;56.41;101810.84;5069669;28;9638;-64
2022/07/26 11:16:47;;;;;;;;;1.00;1.00;;;;;19.18;56.01;101820.41;5069147;28;8867;-64
2022/07/26 11:19:16;;;;;;;;;1.75;0.00;;;;;19.24;55.56;101817.59;5070438;28;9646;-64
2022/07/26 11:21:44;;;;;;;;;2.00;0.75;;;;;19.21;55.20;101815.31;5071430;28;8978;-62
2022/07/26 11:24:11;;;;;;;;;0.00;0.00;;;;;19.22;55.41;101821.59;5070410;28;8843;-64
2022/07/26 11:26:45;;;;;;;;;1.00;1.00;;;;;19.26;54.95;101818.19;5082458;28;8811;-64
2022/07/26 11:29:13;;;;;;;;;0.00;0.00;;;;;19.39;54.98;101828.13;5070169;28;8819;-65
2022/07/26 11:31:46;;;;;;;;;1.00;1.00;;;;;19.54;54.73;101822.25;5070016;28;8835;-65
2022/07/26 11:34:25;;;;;;;;;0.00;0.00;;;;;19.65;55.04;101821.53;5070562;28;9666;-65
2022/07/26 11:36:54;;;;;;;;;0.00;0.00;;;;;19.69;54.83;101820.00;5071790;28;8968;-65
2022/07/26 11:39:23;;;;;;;;;0.00;0.00;;;;;19.68;53.27;101822.94;5071904;28;8831;-65
2022/07/26 11:41:56;;;;;;;;;1.00;1.00;;;;;19.75;52.99;101818.22;5071500;28;8835;-64